sensor_id;sensor_type;location;lat;lon;timestamp;temperature;humidity
23405;DHT22;11875;49.356;2.718;2023-06-01T00:00:17;19.80;99.90
23405;DHT22;11875;49.356;2.718;2023-06-01T00:02:43;19.90;99.90
23405;DHT22;11875;49.356;2.718;2023-06-01T00:05:09;20.00;99.90
23405;DHT22;11875;49.356;2.718;2023-06-01T00:07:34;20.00;99.90
23405;DHT22;11875;49.356;2.718;2023-06-01T00:10:00;20.10;99.90
23405;DHT22;11875;49.356;2.718;2023-06-01T00:12:26;20.00;99.90
23405;DHT22;11875;49.356;2.718;2023-06-01T00:14:52;20.00;99.90
23405;DHT22;11875;49.356;2.718;2023-06-01T00:17:18;20.00;99.90
23405;DHT22;11875;49.356;2.718;2023-06-01T00:19:45;19.90;99.90
23405;DHT22;11875;49.356;2.718;2023-06-01T00:22:11;19.80;99.90
23405;DHT22;11875;49.356;2.718;2023-06-01T00:24:37;19.70;99.90
23405;DHT22;11875;49.356;2.718;2023-06-01T00:27:03;19.60;99.90
23405;DHT22;11875;49.356;2.718;2023-06-01T00:29:29;19.50;99.90
23405;DHT22;11875;49.356;2.718;2023-06-01T00:31:55;19.40;99.90
23405;DHT22;11875;49.356;2.718;2023-06-01T00:34:21;19.30;99.90
23405;DHT22;11875;49.356;2.718;2023-06-01T00:36:46;19.20;99.90
23405;DHT22;11875;49.356;2.718;2023-06-01T00:39:12;19.20;99.90
23405;DHT22;11875;49.356;2.718;2023-06-01T00:41:37;19.10;99.90
23405;DHT22;11875;49.356;2.718;2023-06-01T00:44:03;19.10;99.90
23405;DHT22;11875;49.356;2.718;2023-06-01T00:46:30;19.10;99.90
23405;DHT22;11875;49.356;2.718;2023-06-01T00:48:56;19.10;99.90
23405;DHT22;11875;49.356;2.718;2023-06-01T00:51:23;19.10;99.90
23405;DHT22;11875;49.356;2.718;2023-06-01T00:53:49;19.10;99.90
23405;DHT22;11875;49.356;2.718;2023-06-01T00:56:16;19.10;99.90
23405;DHT22;11875;49.356;2.718;2023-06-01T00:58:42;19.10;99.90
23405;DHT22;11875;49.356;2.718;2023-06-01T01:01:08;19.10;99.90
23405;DHT22;11875;49.356;2.718;2023-06-01T01:03:48;19.00;99.90
23405;DHT22;11875;49.356;2.718;2023-06-01T01:06:51;18.90;99.90
23405;DHT22;11875;49.356;2.718;2023-06-01T01:12:43;18.90;99.90
23405;DHT22;11875;49.356;2.718;2023-06-01T01:17:39;18.90;99.90
23405;DHT22;11875;49.356;2.718;2023-06-01T01:20:27;19.00;99.90
23405;DHT22;11875;49.356;2.718;2023-06-01T01:26:12;19.00;99.90
23405;DHT22;11875;49.356;2.718;2023-06-01T01:29:08;19.00;99.90
23405;DHT22;11875;49.356;2.718;2023-06-01T01:31:34;19.00;99.90
23405;DHT22;11875;49.356;2.718;2023-06-01T01:34:02;19.00;99.90
23405;DHT22;11875;49.356;2.718;2023-06-01T01:36:28;19.00;99.90
23405;DHT22;11875;49.356;2.718;2023-06-01T01:38:54;19.00;99.90
23405;DHT22;11875;49.356;2.718;2023-06-01T01:41:20;19.00;99.90
23405;DHT22;11875;49.356;2.718;2023-06-01T01:43:47;19.00;99.90
23405;DHT22;11875;49.356;2.718;2023-06-01T01:52:21;19.00;99.90
23405;DHT22;11875;49.356;2.718;2023-06-01T01:54:49;19.60;99.90
23405;DHT22;11875;49.356;2.718;2023-06-01T01:57:17;18.90;99.90
23405;DHT22;11875;49.356;2.718;2023-06-01T01:59:43;18.80;99.90
23405;DHT22;11875;49.356;2.718;2023-06-01T02:02:11;18.80;99.90
23405;DHT22;11875;49.356;2.718;2023-06-01T02:04:43;18.80;99.90
23405;DHT22;11875;49.356;2.718;2023-06-01T02:07:11;18.70;99.90
23405;DHT22;11875;49.356;2.718;2023-06-01T02:09:37;18.60;99.90
23405;DHT22;11875;49.356;2.718;2023-06-01T02:12:04;18.60;99.90
23405;DHT22;11875;49.356;2.718;2023-06-01T02:14:29;18.70;99.90
23405;DHT22;11875;49.356;2.718;2023-06-01T02:16:55;18.80;99.90
23405;DHT22;11875;49.356;2.718;2023-06-01T02:19:21;18.70;99.90
23405;DHT22;11875;49.356;2.718;2023-06-01T02:21:47;18.60;99.90
23405;DHT22;11875;49.356;2.718;2023-06-01T02:24:13;18.60;99.90
23405;DHT22;11875;49.356;2.718;2023-06-01T02:26:38;18.60;99.90
23405;DHT22;11875;49.356;2.718;2023-06-01T02:29:04;18.60;99.90
23405;DHT22;11875;49.356;2.718;2023-06-01T02:31:31;18.60;99.90
23405;DHT22;11875;49.356;2.718;2023-06-01T02:33:58;18.60;99.90
23405;DHT22;11875;49.356;2.718;2023-06-01T02:36:24;18.50;99.90
23405;DHT22;11875;49.356;2.718;2023-06-01T02:38:50;18.60;99.90
23405;DHT22;11875;49.356;2.718;2023-06-01T02:41:16;18.50;99.90
23405;DHT22;11875;49.356;2.718;2023-06-01T02:43:41;18.50;99.90
23405;DHT22;11875;49.356;2.718;2023-06-01T02:46:07;18.40;99.90
23405;DHT22;11875;49.356;2.718;2023-06-01T02:48:32;18.40;99.90
23405;DHT22;11875;49.356;2.718;2023-06-01T02:50:58;18.40;99.90
23405;DHT22;11875;49.356;2.718;2023-06-01T02:53:24;18.40;99.90
23405;DHT22;11875;49.356;2.718;2023-06-01T02:55:52;18.30;99.90
23405;DHT22;11875;49.356;2.718;2023-06-01T02:58:18;18.30;99.90
23405;DHT22;11875;49.356;2.718;2023-06-01T03:00:43;18.20;99.90
23405;DHT22;11875;49.356;2.718;2023-06-01T03:03:09;18.20;99.90
23405;DHT22;11875;49.356;2.718;2023-06-01T03:05:35;18.10;99.90
23405;DHT22;11875;49.356;2.718;2023-06-01T03:08:01;18.10;99.90
23405;DHT22;11875;49.356;2.718;2023-06-01T03:10:27;18.00;99.90
23405;DHT22;11875;49.356;2.718;2023-06-01T03:12:53;18.00;99.90
23405;DHT22;11875;49.356;2.718;2023-06-01T03:15:18;18.00;99.90
23405;DHT22;11875;49.356;2.718;2023-06-01T03:17:44;18.00;99.90
23405;DHT22;11875;49.356;2.718;2023-06-01T03:20:10;17.90;99.90
23405;DHT22;11875;49.356;2.718;2023-06-01T03:22:46;17.80;99.90
23405;DHT22;11875;49.356;2.718;2023-06-01T03:25:12;17.60;99.90
23405;DHT22;11875;49.356;2.718;2023-06-01T03:27:38;17.60;99.90
23405;DHT22;11875;49.356;2.718;2023-06-01T03:30:05;17.50;99.90
23405;DHT22;11875;49.356;2.718;2023-06-01T03:32:42;17.50;99.90
23405;DHT22;11875;49.356;2.718;2023-06-01T03:35:08;17.50;99.90
23405;DHT22;11875;49.356;2.718;2023-06-01T03:37:35;17.40;99.90
23405;DHT22;11875;49.356;2.718;2023-06-01T03:40:02;17.40;99.90
23405;DHT22;11875;49.356;2.718;2023-06-01T03:42:36;17.30;99.90
23405;DHT22;11875;49.356;2.718;2023-06-01T03:45:03;17.30;99.90
23405;DHT22;11875;49.356;2.718;2023-06-01T03:47:30;17.30;99.90
23405;DHT22;11875;49.356;2.718;2023-06-01T03:49:55;17.30;99.90
23405;DHT22;11875;49.356;2.718;2023-06-01T03:52:23;17.20;99.90
23405;DHT22;11875;49.356;2.718;2023-06-01T03:54:49;17.20;99.90
23405;DHT22;11875;49.356;2.718;2023-06-01T03:57:15;17.20;99.90
23405;DHT22;11875;49.356;2.718;2023-06-01T03:59:41;17.20;99.90
23405;DHT22;11875;49.356;2.718;2023-06-01T04:02:06;17.30;99.90
23405;DHT22;11875;49.356;2.718;2023-06-01T04:04:35;17.30;99.90
23405;DHT22;11875;49.356;2.718;2023-06-01T04:07:01;17.30;99.90
23405;DHT22;11875;49.356;2.718;2023-06-01T04:09:29;17.30;99.90
23405;DHT22;11875;49.356;2.718;2023-06-01T04:11:55;18.10;99.90
23405;DHT22;11875;49.356;2.718;2023-06-01T04:14:21;17.20;99.90
23405;DHT22;11875;49.356;2.718;2023-06-01T04:16:46;17.20;99.90
23405;DHT22;11875;49.356;2.718;2023-06-01T04:19:12;17.20;99.90
23405;DHT22;11875;49.356;2.718;2023-06-01T04:21:38;17.20;99.90
23405;DHT22;11875;49.356;2.718;2023-06-01T04:24:04;17.20;99.90
23405;DHT22;11875;49.356;2.718;2023-06-01T04:26:29;17.20;99.90
23405;DHT22;11875;49.356;2.718;2023-06-01T04:28:57;17.00;99.90
23405;DHT22;11875;49.356;2.718;2023-06-01T04:31:24;17.00;99.90
23405;DHT22;11875;49.356;2.718;2023-06-01T04:33:49;17.00;99.90
23405;DHT22;11875;49.356;2.718;2023-06-01T04:36:19;17.00;99.90
23405;DHT22;11875;49.356;2.718;2023-06-01T04:38:47;17.00;99.90
23405;DHT22;11875;49.356;2.718;2023-06-01T04:41:17;17.00;99.90
23405;DHT22;11875;49.356;2.718;2023-06-01T04:43:42;17.00;99.90
23405;DHT22;11875;49.356;2.718;2023-06-01T04:46:08;16.90;99.90
23405;DHT22;11875;49.356;2.718;2023-06-01T04:48:33;16.90;99.90
23405;DHT22;11875;49.356;2.718;2023-06-01T04:50:59;16.80;99.90
23405;DHT22;11875;49.356;2.718;2023-06-01T04:53:26;16.80;99.90
23405;DHT22;11875;49.356;2.718;2023-06-01T04:55:54;16.80;99.90
23405;DHT22;11875;49.356;2.718;2023-06-01T04:58:21;16.80;99.90
23405;DHT22;11875;49.356;2.718;2023-06-01T05:00:47;16.70;99.90
23405;DHT22;11875;49.356;2.718;2023-06-01T05:03:13;16.80;99.90
23405;DHT22;11875;49.356;2.718;2023-06-01T05:05:38;16.70;99.90
23405;DHT22;11875;49.356;2.718;2023-06-01T05:08:04;16.60;99.90
23405;DHT22;11875;49.356;2.718;2023-06-01T05:10:30;16.70;99.90
23405;DHT22;11875;49.356;2.718;2023-06-01T05:12:55;16.70;99.90
23405;DHT22;11875;49.356;2.718;2023-06-01T05:15:21;16.60;99.90
23405;DHT22;11875;49.356;2.718;2023-06-01T05:17:47;16.60;99.90
23405;DHT22;11875;49.356;2.718;2023-06-01T05:20:13;16.60;99.90
23405;DHT22;11875;49.356;2.718;2023-06-01T05:22:39;16.60;99.90
23405;DHT22;11875;49.356;2.718;2023-06-01T05:25:05;16.60;99.90
23405;DHT22;11875;49.356;2.718;2023-06-01T05:27:33;16.50;99.90
23405;DHT22;11875;49.356;2.718;2023-06-01T05:29:59;16.50;99.90
23405;DHT22;11875;49.356;2.718;2023-06-01T05:32:24;16.40;99.90
23405;DHT22;11875;49.356;2.718;2023-06-01T05:34:50;16.50;99.90
23405;DHT22;11875;49.356;2.718;2023-06-01T05:37:16;16.60;99.90
23405;DHT22;11875;49.356;2.718;2023-06-01T05:39:41;16.80;99.90
23405;DHT22;11875;49.356;2.718;2023-06-01T05:42:07;16.80;99.90
23405;DHT22;11875;49.356;2.718;2023-06-01T05:44:32;16.80;99.90
23405;DHT22;11875;49.356;2.718;2023-06-01T05:46:58;16.90;99.90
23405;DHT22;11875;49.356;2.718;2023-06-01T05:49:24;16.90;99.90
23405;DHT22;11875;49.356;2.718;2023-06-01T05:51:49;16.90;99.90
23405;DHT22;11875;49.356;2.718;2023-06-01T05:54:16;17.00;99.90
23405;DHT22;11875;49.356;2.718;2023-06-01T05:56:41;17.10;99.90
23405;DHT22;11875;49.356;2.718;2023-06-01T05:59:07;17.10;99.90
23405;DHT22;11875;49.356;2.718;2023-06-01T06:01:32;17.10;99.90
23405;DHT22;11875;49.356;2.718;2023-06-01T06:03:58;17.10;99.90
23405;DHT22;11875;49.356;2.718;2023-06-01T06:06:24;17.30;99.90
23405;DHT22;11875;49.356;2.718;2023-06-01T06:08:50;17.30;99.90
23405;DHT22;11875;49.356;2.718;2023-06-01T06:11:16;17.40;99.90
23405;DHT22;11875;49.356;2.718;2023-06-01T06:13:42;17.40;99.90
23405;DHT22;11875;49.356;2.718;2023-06-01T06:16:07;17.50;99.90
23405;DHT22;11875;49.356;2.718;2023-06-01T06:18:33;17.50;99.90
23405;DHT22;11875;49.356;2.718;2023-06-01T06:20:58;17.50;99.90
23405;DHT22;11875;49.356;2.718;2023-06-01T06:23:24;17.50;99.90
23405;DHT22;11875;49.356;2.718;2023-06-01T06:25:49;17.50;99.90
23405;DHT22;11875;49.356;2.718;2023-06-01T06:28:15;17.60;99.90
23405;DHT22;11875;49.356;2.718;2023-06-01T06:30:41;17.60;99.90
23405;DHT22;11875;49.356;2.718;2023-06-01T06:33:07;17.70;99.90
23405;DHT22;11875;49.356;2.718;2023-06-01T06:35:32;17.40;99.90
23405;DHT22;11875;49.356;2.718;2023-06-01T06:37:58;17.40;99.90
23405;DHT22;11875;49.356;2.718;2023-06-01T06:40:23;17.50;99.90
23405;DHT22;11875;49.356;2.718;2023-06-01T06:42:49;17.60;99.90
23405;DHT22;11875;49.356;2.718;2023-06-01T06:45:16;17.60;99.90
23405;DHT22;11875;49.356;2.718;2023-06-01T06:47:42;17.60;99.90
23405;DHT22;11875;49.356;2.718;2023-06-01T06:50:11;17.70;99.90
23405;DHT22;11875;49.356;2.718;2023-06-01T06:52:37;17.70;99.90
23405;DHT22;11875;49.356;2.718;2023-06-01T06:55:03;17.80;99.90
23405;DHT22;11875;49.356;2.718;2023-06-01T06:57:28;17.90;99.90
23405;DHT22;11875;49.356;2.718;2023-06-01T06:59:54;18.20;99.90
23405;DHT22;11875;49.356;2.718;2023-06-01T07:02:20;18.50;99.90
23405;DHT22;11875;49.356;2.718;2023-06-01T07:04:45;18.70;99.90
23405;DHT22;11875;49.356;2.718;2023-06-01T07:07:11;18.90;99.90
23405;DHT22;11875;49.356;2.718;2023-06-01T07:09:36;19.20;99.90
23405;DHT22;11875;49.356;2.718;2023-06-01T07:12:02;19.60;99.90
23405;DHT22;11875;49.356;2.718;2023-06-01T07:14:28;19.80;99.90
23405;DHT22;11875;49.356;2.718;2023-06-01T07:16:53;19.90;99.90
23405;DHT22;11875;49.356;2.718;2023-06-01T07:19:19;20.20;99.90
23405;DHT22;11875;49.356;2.718;2023-06-01T07:21:45;20.20;99.90
23405;DHT22;11875;49.356;2.718;2023-06-01T07:24:10;20.30;99.90
23405;DHT22;11875;49.356;2.718;2023-06-01T07:26:36;20.50;99.90
23405;DHT22;11875;49.356;2.718;2023-06-01T07:29:02;20.70;99.90
23405;DHT22;11875;49.356;2.718;2023-06-01T07:31:27;20.90;99.90
23405;DHT22;11875;49.356;2.718;2023-06-01T07:33:53;21.10;99.90
23405;DHT22;11875;49.356;2.718;2023-06-01T07:36:22;21.30;99.90
23405;DHT22;11875;49.356;2.718;2023-06-01T07:38:49;21.30;99.90
23405;DHT22;11875;49.356;2.718;2023-06-01T07:41:16;21.40;99.90
23405;DHT22;11875;49.356;2.718;2023-06-01T07:43:41;21.50;99.90
23405;DHT22;11875;49.356;2.718;2023-06-01T07:46:07;21.60;99.90
23405;DHT22;11875;49.356;2.718;2023-06-01T07:48:32;21.80;99.90
23405;DHT22;11875;49.356;2.718;2023-06-01T07:51:04;21.80;99.90
23405;DHT22;11875;49.356;2.718;2023-06-01T07:53:31;21.80;99.90
23405;DHT22;11875;49.356;2.718;2023-06-01T07:55:57;21.80;99.90
23405;DHT22;11875;49.356;2.718;2023-06-01T07:58:22;22.00;99.90
23405;DHT22;11875;49.356;2.718;2023-06-01T08:00:48;22.10;99.90
23405;DHT22;11875;49.356;2.718;2023-06-01T08:03:15;22.20;99.90
23405;DHT22;11875;49.356;2.718;2023-06-01T08:05:41;22.30;99.90
23405;DHT22;11875;49.356;2.718;2023-06-01T08:08:10;22.50;99.90
23405;DHT22;11875;49.356;2.718;2023-06-01T08:10:36;22.60;99.90
23405;DHT22;11875;49.356;2.718;2023-06-01T08:13:03;22.80;99.90
23405;DHT22;11875;49.356;2.718;2023-06-01T08:15:30;22.90;99.90
23405;DHT22;11875;49.356;2.718;2023-06-01T08:17:56;23.00;99.90
23405;DHT22;11875;49.356;2.718;2023-06-01T08:20:22;23.10;99.90
23405;DHT22;11875;49.356;2.718;2023-06-01T08:22:51;23.10;99.90
23405;DHT22;11875;49.356;2.718;2023-06-01T08:25:17;23.30;99.90
23405;DHT22;11875;49.356;2.718;2023-06-01T08:27:43;23.30;99.90
23405;DHT22;11875;49.356;2.718;2023-06-01T08:30:09;23.30;99.90
23405;DHT22;11875;49.356;2.718;2023-06-01T08:32:36;23.40;99.90
23405;DHT22;11875;49.356;2.718;2023-06-01T08:35:01;23.40;99.90
23405;DHT22;11875;49.356;2.718;2023-06-01T08:37:27;23.40;99.90
23405;DHT22;11875;49.356;2.718;2023-06-01T08:39:53;23.40;99.90
23405;DHT22;11875;49.356;2.718;2023-06-01T08:42:59;23.50;99.90
23405;DHT22;11875;49.356;2.718;2023-06-01T08:45:23;23.50;99.90
23405;DHT22;11875;49.356;2.718;2023-06-01T08:47:52;23.30;99.90
23405;DHT22;11875;49.356;2.718;2023-06-01T08:50:18;23.00;99.90
23405;DHT22;11875;49.356;2.718;2023-06-01T08:52:46;22.60;99.90
23405;DHT22;11875;49.356;2.718;2023-06-01T08:55:13;22.40;99.90
23405;DHT22;11875;49.356;2.718;2023-06-01T08:57:42;22.40;99.90
23405;DHT22;11875;49.356;2.718;2023-06-01T09:00:11;22.80;99.90
23405;DHT22;11875;49.356;2.718;2023-06-01T09:02:37;23.00;99.90
23405;DHT22;11875;49.356;2.718;2023-06-01T09:05:03;23.30;99.90
23405;DHT22;11875;49.356;2.718;2023-06-01T09:07:30;23.40;99.90
23405;DHT22;11875;49.356;2.718;2023-06-01T09:09:57;23.70;99.90
23405;DHT22;11875;49.356;2.718;2023-06-01T09:12:24;23.60;99.90
23405;DHT22;11875;49.356;2.718;2023-06-01T09:15:11;23.50;99.90
23405;DHT22;11875;49.356;2.718;2023-06-01T09:17:43;23.60;99.90
23405;DHT22;11875;49.356;2.718;2023-06-01T09:20:22;23.80;99.90
23405;DHT22;11875;49.356;2.718;2023-06-01T09:22:48;24.00;99.90
23405;DHT22;11875;49.356;2.718;2023-06-01T09:25:14;24.10;99.90
23405;DHT22;11875;49.356;2.718;2023-06-01T09:27:48;24.30;99.90
23405;DHT22;11875;49.356;2.718;2023-06-01T09:30:15;24.60;99.90
23405;DHT22;11875;49.356;2.718;2023-06-01T09:32:41;24.60;99.90
23405;DHT22;11875;49.356;2.718;2023-06-01T09:35:08;24.60;99.90
23405;DHT22;11875;49.356;2.718;2023-06-01T09:37:36;24.70;99.90
23405;DHT22;11875;49.356;2.718;2023-06-01T09:40:02;24.80;99.90
23405;DHT22;11875;49.356;2.718;2023-06-01T09:42:34;24.90;99.90
23405;DHT22;11875;49.356;2.718;2023-06-01T09:45:15;25.00;99.90
23405;DHT22;11875;49.356;2.718;2023-06-01T09:47:42;25.00;99.90
23405;DHT22;11875;49.356;2.718;2023-06-01T09:50:08;25.00;99.90
23405;DHT22;11875;49.356;2.718;2023-06-01T09:52:34;24.80;99.90
23405;DHT22;11875;49.356;2.718;2023-06-01T09:55:05;24.90;99.90
23405;DHT22;11875;49.356;2.718;2023-06-01T09:57:31;25.00;99.80
23405;DHT22;11875;49.356;2.718;2023-06-01T09:59:57;25.00;99.90
23405;DHT22;11875;49.356;2.718;2023-06-01T10:02:23;25.10;99.70
23405;DHT22;11875;49.356;2.718;2023-06-01T10:07:16;25.20;99.30
23405;DHT22;11875;49.356;2.718;2023-06-01T10:09:45;25.00;99.40
23405;DHT22;11875;49.356;2.718;2023-06-01T10:12:11;24.80;99.60
23405;DHT22;11875;49.356;2.718;2023-06-01T10:14:38;24.80;99.90
23405;DHT22;11875;49.356;2.718;2023-06-01T10:17:07;25.00;99.70
23405;DHT22;11875;49.356;2.718;2023-06-01T10:19:34;25.20;99.70
23405;DHT22;11875;49.356;2.718;2023-06-01T10:22:02;25.20;99.70
23405;DHT22;11875;49.356;2.718;2023-06-01T10:24:28;25.30;99.90
23405;DHT22;11875;49.356;2.718;2023-06-01T10:29:31;25.40;99.60
23405;DHT22;11875;49.356;2.718;2023-06-01T10:31:57;25.30;99.30
23405;DHT22;11875;49.356;2.718;2023-06-01T10:34:43;25.40;99.00
23405;DHT22;11875;49.356;2.718;2023-06-01T10:37:11;25.40;99.40
23405;DHT22;11875;49.356;2.718;2023-06-01T10:39:37;25.70;99.50
23405;DHT22;11875;49.356;2.718;2023-06-01T10:47:06;25.70;98.70
23405;DHT22;11875;49.356;2.718;2023-06-01T10:52:36;25.80;99.30
23405;DHT22;11875;49.356;2.718;2023-06-01T10:57:32;26.10;99.40
23405;DHT22;11875;49.356;2.718;2023-06-01T11:00:24;26.10;98.90
23405;DHT22;11875;49.356;2.718;2023-06-01T11:02:57;26.10;98.80
23405;DHT22;11875;49.356;2.718;2023-06-01T11:05:39;26.10;98.50
23405;DHT22;11875;49.356;2.718;2023-06-01T11:08:07;26.20;98.50
23405;DHT22;11875;49.356;2.718;2023-06-01T11:13:34;26.40;98.50
23405;DHT22;11875;49.356;2.718;2023-06-01T11:18:47;26.30;98.80
23405;DHT22;11875;49.356;2.718;2023-06-01T11:23:53;26.60;98.90
23405;DHT22;11875;49.356;2.718;2023-06-01T11:26:21;26.60;98.70
23405;DHT22;11875;49.356;2.718;2023-06-01T11:28:51;26.70;98.20
23405;DHT22;11875;49.356;2.718;2023-06-01T11:31:18;26.60;98.20
23405;DHT22;11875;49.356;2.718;2023-06-01T11:33:52;26.60;98.50
23405;DHT22;11875;49.356;2.718;2023-06-01T11:36:19;26.60;98.30
23405;DHT22;11875;49.356;2.718;2023-06-01T11:38:45;26.60;98.50
23405;DHT22;11875;49.356;2.718;2023-06-01T11:41:11;26.60;97.70
23405;DHT22;11875;49.356;2.718;2023-06-01T11:43:37;26.70;98.20
23405;DHT22;11875;49.356;2.718;2023-06-01T11:46:04;26.90;97.80
23405;DHT22;11875;49.356;2.718;2023-06-01T11:48:30;26.80;97.50
23405;DHT22;11875;49.356;2.718;2023-06-01T11:50:57;26.80;97.10
23405;DHT22;11875;49.356;2.718;2023-06-01T11:53:26;27.00;97.70
23405;DHT22;11875;49.356;2.718;2023-06-01T11:55:54;26.90;97.80
23405;DHT22;11875;49.356;2.718;2023-06-01T11:58:28;26.90;97.90
23405;DHT22;11875;49.356;2.718;2023-06-01T12:00:55;27.00;97.00
23405;DHT22;11875;49.356;2.718;2023-06-01T12:03:21;27.00;97.00
23405;DHT22;11875;49.356;2.718;2023-06-01T12:05:49;27.00;96.90
23405;DHT22;11875;49.356;2.718;2023-06-01T12:08:21;26.90;97.00
23405;DHT22;11875;49.356;2.718;2023-06-01T12:10:48;26.60;97.30
23405;DHT22;11875;49.356;2.718;2023-06-01T12:13:18;26.60;97.40
23405;DHT22;11875;49.356;2.718;2023-06-01T12:15:45;26.70;97.50
23405;DHT22;11875;49.356;2.718;2023-06-01T12:18:11;26.80;97.70
23405;DHT22;11875;49.356;2.718;2023-06-01T12:20:41;26.90;96.90
23405;DHT22;11875;49.356;2.718;2023-06-01T12:28:18;27.00;97.60
23405;DHT22;11875;49.356;2.718;2023-06-01T12:30:44;26.80;96.40
23405;DHT22;11875;49.356;2.718;2023-06-01T12:33:32;26.80;96.70
23405;DHT22;11875;49.356;2.718;2023-06-01T12:36:02;27.00;96.50
23405;DHT22;11875;49.356;2.718;2023-06-01T12:38:37;27.20;96.50
23405;DHT22;11875;49.356;2.718;2023-06-01T12:41:14;27.30;96.30
23405;DHT22;11875;49.356;2.718;2023-06-01T12:43:44;27.40;96.70
23405;DHT22;11875;49.356;2.718;2023-06-01T12:46:24;27.50;96.80
23405;DHT22;11875;49.356;2.718;2023-06-01T12:48:52;27.50;96.60
23405;DHT22;11875;49.356;2.718;2023-06-01T12:51:19;27.50;96.80
23405;DHT22;11875;49.356;2.718;2023-06-01T12:53:46;27.40;97.10
23405;DHT22;11875;49.356;2.718;2023-06-01T12:56:13;27.40;97.20
23405;DHT22;11875;49.356;2.718;2023-06-01T12:58:39;27.50;96.90
23405;DHT22;11875;49.356;2.718;2023-06-01T13:01:05;27.60;96.40
23405;DHT22;11875;49.356;2.718;2023-06-01T13:03:31;27.60;96.40
23405;DHT22;11875;49.356;2.718;2023-06-01T13:05:56;27.50;96.70
23405;DHT22;11875;49.356;2.718;2023-06-01T13:08:23;27.50;97.00
23405;DHT22;11875;49.356;2.718;2023-06-01T13:10:49;27.60;96.80
23405;DHT22;11875;49.356;2.718;2023-06-01T13:13:15;27.60;96.30
23405;DHT22;11875;49.356;2.718;2023-06-01T13:15:44;27.60;96.20
23405;DHT22;11875;49.356;2.718;2023-06-01T13:18:11;27.60;96.50
23405;DHT22;11875;49.356;2.718;2023-06-01T13:20:37;27.40;96.40
23405;DHT22;11875;49.356;2.718;2023-06-01T13:23:04;27.40;96.40
23405;DHT22;11875;49.356;2.718;2023-06-01T13:25:30;27.50;96.30
23405;DHT22;11875;49.356;2.718;2023-06-01T13:27:56;27.40;96.00
23405;DHT22;11875;49.356;2.718;2023-06-01T13:30:22;27.50;95.90
23405;DHT22;11875;49.356;2.718;2023-06-01T13:32:48;27.50;95.70
23405;DHT22;11875;49.356;2.718;2023-06-01T13:35:14;27.60;95.40
23405;DHT22;11875;49.356;2.718;2023-06-01T13:37:40;27.60;95.60
23405;DHT22;11875;49.356;2.718;2023-06-01T13:40:06;27.60;95.60
23405;DHT22;11875;49.356;2.718;2023-06-01T13:42:32;27.80;95.90
23405;DHT22;11875;49.356;2.718;2023-06-01T13:44:58;27.90;95.80
23405;DHT22;11875;49.356;2.718;2023-06-01T13:47:24;27.90;95.90
23405;DHT22;11875;49.356;2.718;2023-06-01T13:49:50;27.80;96.10
23405;DHT22;11875;49.356;2.718;2023-06-01T13:52:16;27.70;96.50
23405;DHT22;11875;49.356;2.718;2023-06-01T13:54:42;27.30;95.80
23405;DHT22;11875;49.356;2.718;2023-06-01T13:57:08;27.30;96.10
23405;DHT22;11875;49.356;2.718;2023-06-01T13:59:35;27.30;96.40
23405;DHT22;11875;49.356;2.718;2023-06-01T14:02:02;27.50;95.60
23405;DHT22;11875;49.356;2.718;2023-06-01T14:04:29;27.70;95.80
23405;DHT22;11875;49.356;2.718;2023-06-01T14:06:54;27.70;96.10
23405;DHT22;11875;49.356;2.718;2023-06-01T14:09:21;27.70;96.40
23405;DHT22;11875;49.356;2.718;2023-06-01T14:11:47;27.70;96.20
23405;DHT22;11875;49.356;2.718;2023-06-01T14:14:12;27.70;96.00
23405;DHT22;11875;49.356;2.718;2023-06-01T14:16:38;27.90;95.70
23405;DHT22;11875;49.356;2.718;2023-06-01T14:19:04;27.90;95.50
23405;DHT22;11875;49.356;2.718;2023-06-01T14:21:30;28.00;95.60
23405;DHT22;11875;49.356;2.718;2023-06-01T14:23:57;28.20;95.90
23405;DHT22;11875;49.356;2.718;2023-06-01T14:26:23;28.30;95.70
23405;DHT22;11875;49.356;2.718;2023-06-01T14:28:49;28.30;95.70
23405;DHT22;11875;49.356;2.718;2023-06-01T14:31:14;28.20;95.20
23405;DHT22;11875;49.356;2.718;2023-06-01T14:33:40;28.20;95.30
23405;DHT22;11875;49.356;2.718;2023-06-01T14:36:06;28.20;94.80
23405;DHT22;11875;49.356;2.718;2023-06-01T14:38:31;28.20;94.70
23405;DHT22;11875;49.356;2.718;2023-06-01T14:40:57;28.20;94.90
23405;DHT22;11875;49.356;2.718;2023-06-01T14:43:22;28.30;94.60
23405;DHT22;11875;49.356;2.718;2023-06-01T14:45:48;28.30;94.50
23405;DHT22;11875;49.356;2.718;2023-06-01T14:48:14;28.30;94.40
23405;DHT22;11875;49.356;2.718;2023-06-01T14:50:39;28.20;94.50
23405;DHT22;11875;49.356;2.718;2023-06-01T14:53:05;28.10;94.80
23405;DHT22;11875;49.356;2.718;2023-06-01T14:55:32;28.10;94.90
23405;DHT22;11875;49.356;2.718;2023-06-01T14:57:57;28.00;94.80
23405;DHT22;11875;49.356;2.718;2023-06-01T15:00:23;28.10;95.10
23405;DHT22;11875;49.356;2.718;2023-06-01T15:02:49;28.20;94.40
23405;DHT22;11875;49.356;2.718;2023-06-01T15:05:14;28.30;94.50
23405;DHT22;11875;49.356;2.718;2023-06-01T15:07:40;28.40;94.30
23405;DHT22;11875;49.356;2.718;2023-06-01T15:10:06;28.50;94.20
23405;DHT22;11875;49.356;2.718;2023-06-01T15:12:32;28.40;94.30
23405;DHT22;11875;49.356;2.718;2023-06-01T15:14:58;28.40;94.40
23405;DHT22;11875;49.356;2.718;2023-06-01T15:17:23;28.30;94.20
23405;DHT22;11875;49.356;2.718;2023-06-01T15:19:49;28.20;94.50
23405;DHT22;11875;49.356;2.718;2023-06-01T15:22:15;28.30;93.80
23405;DHT22;11875;49.356;2.718;2023-06-01T15:24:41;28.30;93.90
23405;DHT22;11875;49.356;2.718;2023-06-01T15:27:09;28.30;94.00
23405;DHT22;11875;49.356;2.718;2023-06-01T15:29:35;28.30;93.80
23405;DHT22;11875;49.356;2.718;2023-06-01T15:32:01;28.30;93.70
23405;DHT22;11875;49.356;2.718;2023-06-01T15:34:27;28.30;93.90
23405;DHT22;11875;49.356;2.718;2023-06-01T15:36:52;28.30;92.90
23405;DHT22;11875;49.356;2.718;2023-06-01T15:39:18;28.20;93.00
23405;DHT22;11875;49.356;2.718;2023-06-01T15:41:44;28.10;92.40
23405;DHT22;11875;49.356;2.718;2023-06-01T15:44:09;28.10;92.70
23405;DHT22;11875;49.356;2.718;2023-06-01T15:46:35;28.00;93.20
23405;DHT22;11875;49.356;2.718;2023-06-01T15:49:01;28.10;93.50
23405;DHT22;11875;49.356;2.718;2023-06-01T15:51:26;28.00;93.20
23405;DHT22;11875;49.356;2.718;2023-06-01T15:53:53;27.90;93.40
23405;DHT22;11875;49.356;2.718;2023-06-01T15:56:19;28.00;93.30
23405;DHT22;11875;49.356;2.718;2023-06-01T15:58:44;28.00;93.40
23405;DHT22;11875;49.356;2.718;2023-06-01T16:01:10;28.00;93.20
23405;DHT22;11875;49.356;2.718;2023-06-01T16:03:35;28.00;92.80
23405;DHT22;11875;49.356;2.718;2023-06-01T16:06:01;27.90;93.20
23405;DHT22;11875;49.356;2.718;2023-06-01T16:08:27;27.90;93.30
23405;DHT22;11875;49.356;2.718;2023-06-01T16:10:52;28.10;93.20
23405;DHT22;11875;49.356;2.718;2023-06-01T16:13:18;28.10;92.80